createdAt,value
2019-02-20T00:00:06.103Z,33.20
2019-02-20T00:05:14.614Z,30.70
2019-02-20T00:10:33.765Z,30.83
2019-02-20T00:15:40.656Z,32.10
2019-02-20T00:20:49.260Z,40.07
2019-02-20T00:25:56.155Z,34.53
2019-02-20T00:31:03.086Z,34.10
2019-02-20T00:36:10.412Z,36.13
2019-02-20T00:41:35.917Z,33.53
2019-02-20T00:46:47.157Z,31.67
2019-02-20T00:51:55.645Z,33.43
2019-02-20T00:57:02.607Z,33.57
2019-02-20T01:02:09.500Z,31.33
2019-02-20T01:07:15.986Z,31.40
2019-02-20T01:12:22.539Z,35.43
2019-02-20T01:17:28.530Z,33.97
2019-02-20T01:22:34.510Z,30.63
2019-02-20T01:27:40.519Z,37.37
2019-02-20T01:32:47.388Z,35.97
2019-02-20T01:37:54.163Z,36.03
2019-02-20T01:43:00.987Z,35.47
2019-02-20T01:48:07.837Z,33.43
2019-02-20T01:53:14.656Z,34.00
2019-02-20T01:58:21.486Z,33.73
2019-02-20T02:03:27.444Z,33.23
2019-02-20T02:08:33.413Z,32.63
2019-02-20T02:13:39.396Z,34.10
2019-02-20T02:18:46.033Z,34.40
2019-02-20T02:24:14.253Z,33.73
2019-02-20T02:29:20.946Z,35.70
2019-02-20T02:34:26.896Z,41.83
2019-02-20T02:39:32.830Z,37.50
2019-02-20T02:44:39.693Z,35.93
2019-02-20T02:49:46.499Z,35.27
2019-02-20T02:54:53.040Z,32.97
2019-02-20T03:00:00.311Z,40.47
2019-02-20T03:05:08.718Z,25.23
2019-02-20T03:10:27.747Z,38.03
2019-02-20T03:15:33.677Z,36.03
2019-02-20T03:20:40.508Z,38.53
2019-02-20T03:25:47.067Z,41.47
2019-02-20T03:30:54.892Z,38.00
2019-02-20T03:36:01.972Z,31.37
2019-02-20T03:41:09.198Z,37.73
2019-02-20T03:46:17.793Z,39.40
2019-02-20T03:51:23.763Z,38.10
2019-02-20T03:56:29.907Z,36.67
2019-02-20T04:01:35.926Z,42.63
2019-02-20T04:06:42.879Z,33.57
2019-02-20T04:11:48.840Z,42.73
2019-02-20T04:16:55.727Z,41.53
2019-02-20T04:22:03.033Z,36.63
2019-02-20T04:27:10.024Z,41.47
2019-02-20T04:32:16.811Z,38.50
2019-02-20T04:37:23.187Z,37.17
2019-02-20T04:42:29.235Z,36.30
2019-02-20T04:47:35.226Z,37.23
2019-02-20T04:52:43.319Z,34.07
2019-02-20T04:57:53.771Z,36.30
2019-02-20T05:03:00.741Z,43.60
2019-02-20T05:08:07.525Z,38.90
2019-02-20T05:13:14.378Z,36.53
2019-02-20T05:18:21.538Z,38.13
2019-02-20T05:23:27.488Z,41.07
2019-02-20T05:28:34.562Z,38.40
2019-02-20T05:33:41.560Z,40.47
2019-02-20T05:38:49.384Z,43.27
2019-02-20T05:43:56.195Z,41.83
2019-02-20T05:49:02.940Z,38.70
2019-02-20T05:54:09.831Z,39.40
2019-02-20T05:59:17.081Z,38.67
2019-02-20T06:04:25.201Z,40.20
2019-02-20T06:09:31.175Z,37.77
2019-02-20T06:14:37.738Z,41.17
2019-02-20T06:19:43.707Z,39.43
2019-02-20T06:24:52.218Z,36.13
2019-02-20T06:29:58.644Z,38.07
2019-02-20T06:35:06.595Z,38.43
2019-02-20T06:40:13.669Z,40.93
2019-02-20T06:45:20.417Z,38.53
2019-02-20T06:50:26.376Z,38.20
2019-02-20T06:55:32.354Z,36.03
2019-02-20T07:00:39.379Z,46.33
2019-02-20T07:05:46.238Z,38.97
2019-02-20T07:11:12.525Z,40.70
2019-02-20T07:16:45.462Z,40.73
2019-02-20T07:22:08.692Z,39.53
2019-02-20T07:27:37.105Z,41.20
2019-02-20T07:32:43.826Z,42.53
2019-02-20T07:37:50.895Z,40.47
2019-02-20T07:42:57.849Z,40.93
2019-02-20T07:48:05.155Z,36.97
2019-02-20T07:53:11.799Z,45.07
2019-02-20T07:58:18.663Z,35.30
2019-02-20T08:03:24.696Z,43.57
2019-02-20T08:08:33.239Z,36.40
2019-02-20T08:13:40.143Z,38.53
2019-02-20T08:18:47.067Z,37.83
2019-02-20T08:23:54.019Z,34.57
2019-02-20T08:29:00.835Z,42.03
2019-02-20T08:34:08.140Z,37.77
2019-02-20T08:39:14.800Z,40.43
2019-02-20T08:44:21.632Z,37.97
2019-02-20T08:49:27.602Z,37.10
2019-02-20T08:54:34.447Z,37.60
2019-02-20T08:59:41.272Z,36.67
2019-02-20T09:04:48.472Z,32.30
2019-02-20T09:09:55.613Z,34.87
2019-02-20T09:15:02.447Z,30.87
2019-02-20T09:20:14.163Z,34.50
2019-02-20T09:25:21.264Z,33.50
2019-02-20T09:30:28.866Z,33.50
2019-02-20T09:35:35.274Z,31.37
2019-02-20T09:40:43.073Z,22.07
2019-02-20T09:45:50.238Z,31.87
2019-02-20T09:50:56.796Z,28.47
2019-02-20T09:56:04.328Z,24.40
2019-02-20T10:01:11.285Z,28.67
2019-02-20T10:06:18.339Z,26.90
2019-02-20T10:11:24.451Z,24.13
2019-02-20T10:16:31.333Z,24.90
2019-02-20T10:21:37.313Z,23.83
2019-02-20T10:26:44.340Z,27.47
2019-02-20T10:31:50.850Z,25.77
2019-02-20T10:36:57.677Z,24.30
2019-02-20T10:42:04.756Z,26.53
2019-02-20T10:47:11.627Z,29.03
2019-02-20T10:52:18.696Z,27.57
2019-02-20T10:57:24.785Z,27.63
2019-02-20T11:02:31.488Z,25.80
2019-02-20T11:07:56.746Z,21.20
2019-02-20T11:13:06.091Z,25.83
2019-02-20T11:18:13.086Z,27.27
2019-02-20T11:23:20.208Z,31.37
2019-02-20T11:28:27.218Z,30.33
2019-02-20T11:33:35.178Z,28.10
2019-02-20T11:38:41.605Z,32.80
2019-02-20T11:43:48.783Z,27.97
2019-02-20T11:48:55.539Z,26.10
2019-02-20T11:54:02.164Z,25.13
2019-02-20T11:59:09.521Z,29.13
2019-02-20T12:04:16.422Z,27.70
2019-02-20T12:09:24.513Z,30.27
2019-02-20T12:14:32.822Z,29.67
2019-02-20T12:19:39.893Z,31.33
2019-02-20T12:24:47.015Z,29.40
2019-02-20T12:29:53.930Z,26.43
2019-02-20T12:35:00.797Z,26.87
2019-02-20T12:40:10.084Z,25.97
2019-02-20T12:45:16.745Z,27.70
2019-02-20T12:50:24.929Z,27.50
2019-02-20T12:55:32.643Z,22.33
2019-02-20T13:00:39.455Z,26.97
2019-02-20T13:05:47.945Z,22.50
2019-02-20T13:10:56.667Z,18.47
2019-02-20T13:16:09.411Z,21.93
2019-02-20T13:21:11.877Z,24.57
2019-02-20T13:26:18.897Z,27.33
2019-02-20T13:31:25.058Z,29.63
2019-02-20T13:36:31.057Z,26.27
2019-02-20T13:41:37.055Z,23.33
2019-02-20T13:46:44.568Z,25.50
2019-02-20T13:51:51.997Z,27.00
2019-02-20T13:57:02.025Z,24.97
2019-02-20T14:02:07.862Z,25.70
2019-02-20T14:07:16.858Z,24.70
2019-02-20T14:12:25.145Z,24.90
2019-02-20T14:17:43.816Z,21.20
2019-02-20T14:22:50.909Z,25.63
2019-02-20T14:27:57.294Z,23.43
2019-02-20T14:33:03.934Z,22.83
2019-02-20T14:38:10.463Z,19.70
2019-02-20T14:43:18.090Z,18.67
2019-02-20T14:48:25.075Z,20.70
2019-02-20T14:53:33.761Z,18.17
2019-02-20T14:58:40.777Z,16.10
2019-02-20T15:03:47.596Z,20.03
2019-02-20T15:08:54.811Z,19.67
2019-02-20T15:14:01.715Z,14.67
2019-02-20T15:19:08.621Z,19.23
2019-02-20T15:24:15.596Z,18.30
2019-02-20T15:29:22.232Z,15.57
2019-02-20T15:34:28.519Z,20.73
2019-02-20T15:39:34.506Z,20.10
2019-02-20T15:44:41.393Z,14.57
2019-02-20T15:49:47.919Z,18.27
2019-02-20T15:54:54.565Z,13.57
2019-02-20T16:00:01.676Z,23.53
2019-02-20T16:05:10.072Z,19.67
2019-02-20T16:10:17.604Z,15.17
2019-02-20T16:15:24.490Z,18.73
2019-02-20T16:20:31.050Z,19.50
2019-02-20T16:25:37.335Z,23.20
2019-02-20T16:30:44.372Z,37.03
2019-02-20T16:35:53.892Z,22.87
2019-02-20T16:41:00.756Z,31.90
2019-02-20T16:46:08.070Z,25.10
2019-02-20T16:51:16.478Z,27.77
2019-02-20T16:56:23.591Z,37.63
2019-02-20T17:01:31.224Z,33.83
2019-02-20T17:06:38.328Z,32.20
2019-02-20T17:11:45.244Z,33.43
2019-02-20T17:16:51.785Z,62.43
2019-02-20T17:21:58.915Z,36.77
2019-02-20T17:27:07.514Z,29.60
2019-02-20T17:32:14.599Z,29.07
2019-02-20T17:37:21.594Z,27.77
2019-02-20T17:42:27.660Z,33.30
2019-02-20T17:47:34.687Z,30.17
2019-02-20T17:52:41.209Z,35.60
2019-02-20T17:57:48.567Z,29.83
2019-02-20T18:02:55.458Z,27.33
2019-02-20T18:08:02.066Z,33.27
2019-02-20T18:13:08.695Z,30.90
2019-02-20T18:18:28.259Z,29.30
2019-02-20T18:23:34.426Z,30.23
2019-02-20T18:28:41.265Z,28.50
2019-02-20T18:33:48.133Z,31.70
2019-02-20T18:38:54.985Z,31.23
2019-02-20T18:44:02.105Z,33.20
2019-02-20T18:49:09.918Z,31.83
2019-02-20T18:54:17.231Z,33.07
2019-02-20T18:59:25.433Z,30.47
2019-02-20T19:04:32.048Z,26.93
2019-02-20T19:09:40.357Z,32.43
2019-02-20T19:15:18.107Z,36.90
2019-02-20T19:20:41.677Z,34.37
2019-02-20T19:26:22.517Z,28.67
2019-02-20T19:32:00.148Z,36.30
2019-02-20T19:37:17.292Z,28.57
2019-02-20T19:42:36.508Z,34.60
2019-02-20T19:47:55.813Z,35.90
2019-02-20T19:53:27.217Z,37.47
2019-02-20T19:59:07.208Z,33.47
2019-02-20T20:04:40.067Z,36.13
2019-02-20T20:10:43.265Z,40.20
2019-02-20T20:16:18.097Z,37.50
2019-02-20T20:21:49.518Z,41.73
2019-02-20T20:27:42.375Z,32.07
2019-02-20T20:33:29.425Z,39.50
2019-02-20T20:39:02.893Z,44.03
2019-02-20T20:44:30.346Z,37.73
2019-02-20T20:50:12.718Z,36.97
2019-02-20T20:55:44.455Z,42.37
2019-02-20T21:01:03.562Z,39.03
2019-02-20T21:06:50.013Z,42.03
2019-02-20T21:12:33.418Z,39.27
2019-02-20T21:17:52.716Z,34.47
2019-02-20T21:23:27.270Z,40.33
2019-02-20T21:28:47.801Z,46.43
2019-02-20T21:34:22.214Z,40.23
2019-02-20T21:39:54.026Z,47.53
2019-02-20T21:45:28.757Z,36.70
2019-02-20T21:50:56.997Z,37.67
2019-02-20T21:56:19.686Z,41.47
2019-02-20T22:01:35.895Z,45.40
2019-02-20T22:07:10.796Z,39.10
2019-02-20T22:12:30.606Z,44.27
2019-02-20T22:18:01.503Z,44.00
2019-02-20T22:23:39.243Z,42.47
2019-02-20T22:29:10.267Z,35.77
2019-02-20T22:34:54.145Z,34.47
2019-02-20T22:40:32.145Z,38.17
2019-02-20T22:46:02.042Z,40.27
2019-02-20T22:51:53.029Z,36.77
2019-02-20T22:57:36.794Z,36.87
2019-02-20T23:03:02.328Z,42.40
2019-02-20T23:08:43.059Z,36.97
2019-02-20T23:14:18.153Z,37.53
2019-02-20T23:19:24.153Z,36.43
2019-02-20T23:24:30.995Z,41.60
2019-02-20T23:29:36.979Z,40.47
2019-02-20T23:34:45.060Z,44.50
2019-02-20T23:39:52.200Z,40.60
2019-02-20T23:44:58.646Z,37.17
2019-02-20T23:50:08.985Z,42.13
2019-02-20T23:55:15.865Z,35.50
